Time;durP1;ratioP1;P1;durP2;ratioP2;P2;SDS_P1;SDS_P2;PMS_P1;PMS_P2;Temp;Humidity;BMP_temperature;BMP_pressure;BME280_temperature;BME280_humidity;BME280_pressure;Samples;Min_cycle;Max_cycle;Signal;HPM_P1;HPM_P2
2021/07/11 00:02:14;;;;;;;2.40;1.50;;;17.40;44.80;;;;;;5033054;28;20175;-74
2021/07/11 00:04:40;;;;;;;2.13;1.23;;;17.20;44.90;;;;;;5014265;28;20747;-74
2021/07/11 00:07:06;;;;;;;3.00;2.10;;;17.10;45.80;;;;;;5031899;28;20186;-75
2021/07/11 00:09:31;;;;;;;2.67;1.80;;;17.10;46.50;;;;;;5031710;28;20249;-74
2021/07/11 00:11:57;;;;;;;1.87;1.27;;;17.10;46.90;;;;;;5030172;28;20266;-75
2021/07/11 00:14:22;;;;;;;2.17;1.40;;;17.10;47.10;;;;;;5051635;28;20185;-74
2021/07/11 00:16:48;;;;;;;1.90;1.47;;;17.10;47.30;;;;;;5051654;28;20205;-74
2021/07/11 00:19:14;;;;;;;3.50;2.27;;;17.10;47.00;;;;;;5051811;28;20227;-75
2021/07/11 00:21:39;;;;;;;5.00;2.17;;;17.10;47.70;;;;;;5037667;28;20214;-73
2021/07/11 00:24:05;;;;;;;3.17;2.00;;;17.20;47.70;;;;;;5013777;28;20176;-73
2021/07/11 00:26:31;;;;;;;3.17;2.03;;;17.20;48.20;;;;;;5031208;28;20208;-73
2021/07/11 00:28:56;;;;;;;2.90;1.90;;;17.20;47.70;;;;;;5031609;28;20727;-74
2021/07/11 00:31:22;;;;;;;1.90;1.40;;;17.20;46.70;;;;;;5042806;28;20182;-75
2021/07/11 00:33:47;;;;;;;2.47;1.70;;;17.10;47.60;;;;;;5051690;28;20203;-74
2021/07/11 00:36:13;;;;;;;2.60;1.70;;;17.10;47.50;;;;;;5049466;28;20203;-72
2021/07/11 00:38:38;;;;;;;1.87;1.70;;;17.00;48.00;;;;;;5031358;28;20199;-73
2021/07/11 00:41:04;;;;;;;2.13;1.70;;;17.00;49.70;;;;;;5039506;28;20183;-75
2021/07/11 00:43:30;;;;;;;2.70;1.90;;;17.00;49.70;;;;;;5051445;28;20198;-74
2021/07/11 00:45:56;;;;;;;2.53;1.67;;;17.10;49.30;;;;;;5030126;28;20652;-74
2021/07/11 00:48:22;;;;;;;1.70;1.20;;;17.10;48.40;;;;;;5013747;28;20425;-74
2021/07/11 00:50:48;;;;;;;2.40;1.40;;;17.00;48.50;;;;;;5037452;28;20300;-74
2021/07/11 00:53:14;;;;;;;2.80;2.10;;;17.00;48.10;;;;;;5051813;28;20404;-74
2021/07/11 00:55:40;;;;;;;2.30;1.50;;;16.90;48.30;;;;;;5051738;28;20405;-74
2021/07/11 00:58:06;;;;;;;3.83;1.77;;;16.80;48.70;;;;;;5034042;28;20483;-74
2021/07/11 01:00:33;;;;;;;2.60;2.10;;;16.70;49.60;;;;;;5047718;28;20425;-73
2021/07/11 01:03:09;;;;;;;2.70;1.90;;;16.70;49.30;;;;;;5014114;28;20210;-74
2021/07/11 01:05:35;;;;;;;2.13;1.67;;;16.60;49.70;;;;;;5014259;28;20543;-74
2021/07/11 01:08:59;;;;;;;2.47;1.60;;;16.50;50.60;;;;;;5013767;28;20420;-74
2021/07/11 01:11:27;;;;;;;1.80;1.53;;;16.50;51.00;;;;;;5008980;28;20432;-73
2021/07/11 01:13:56;;;;;;;2.10;1.50;;;16.60;51.30;;;;;;5033352;28;20760;-74
2021/07/11 01:16:27;;;;;;;1.70;1.43;;;16.70;49.40;;;;;;5051267;28;20464;-74
2021/07/11 01:18:58;;;;;;;1.90;1.70;;;16.60;47.90;;;;;;5051212;28;20432;-74
2021/07/11 01:21:25;;;;;;;2.47;1.80;;;16.60;49.20;;;;;;5041219;28;20532;-74
2021/07/11 01:23:58;;;;;;;5.03;1.30;;;16.70;49.10;;;;;;5031000;28;20540;-74
2021/07/11 01:26:26;;;;;;;2.40;1.60;;;16.70;48.50;;;;;;5013606;28;20421;-74
2021/07/11 01:28:53;;;;;;;1.70;1.50;;;16.60;47.60;;;;;;5030848;28;20844;-74
2021/07/11 01:31:24;;;;;;;2.10;1.50;;;16.60;48.50;;;;;;5040069;28;20420;-72
2021/07/11 01:33:51;;;;;;;2.27;1.80;;;16.60;48.90;;;;;;5051213;28;20413;-74
2021/07/11 01:36:17;;;;;;;2.07;1.83;;;16.70;49.30;;;;;;5050780;28;20488;-74
2021/07/11 01:38:45;;;;;;;3.07;1.70;;;16.70;49.50;;;;;;5050462;28;20436;-74
2021/07/11 01:41:12;;;;;;;3.67;1.80;;;16.70;49.10;;;;;;5042974;28;20480;-74
2021/07/11 01:43:38;;;;;;;2.10;1.50;;;16.80;49.20;;;;;;5033254;28;20420;-74
2021/07/11 01:46:07;;;;;;;3.13;1.63;;;16.80;49.30;;;;;;5039678;28;20907;-74
2021/07/11 01:48:33;;;;;;;1.60;1.13;;;16.90;49.20;;;;;;5012729;28;20458;-72
2021/07/11 01:51:00;;;;;;;1.90;1.57;;;16.90;49.30;;;;;;5036187;28;20417;-74
2021/07/11 01:53:28;;;;;;;5.03;2.10;;;16.90;49.00;;;;;;5049089;28;20420;-74
2021/07/11 01:55:55;;;;;;;2.30;1.70;;;17.00;47.50;;;;;;5032710;28;20421;-74
2021/07/11 01:58:21;;;;;;;2.30;1.77;;;16.90;47.30;;;;;;5050527;28;20409;-75
2021/07/11 02:00:52;;;;;;;1.93;1.37;;;17.00;47.60;;;;;;5040605;28;20433;-74
2021/07/11 02:03:19;;;;;;;1.97;1.40;;;16.90;46.60;;;;;;5030531;28;20403;-74
2021/07/11 02:05:46;;;;;;;3.13;1.97;;;16.90;46.30;;;;;;5030513;28;20907;-75
2021/07/11 02:08:15;;;;;;;2.03;1.50;;;16.90;46.30;;;;;;5033197;28;20417;-74
2021/07/11 02:10:44;;;;;;;1.60;1.17;;;16.90;46.10;;;;;;5042114;28;20815;-71
2021/07/11 02:13:21;;;;;;;8.80;2.07;;;16.90;45.80;;;;;;5035842;28;20413;-74
2021/07/11 02:15:50;;;;;;;2.07;1.33;;;16.90;46.00;;;;;;5053496;28;20416;-73
2021/07/11 02:18:19;;;;;;;1.97;1.70;;;16.90;45.90;;;;;;5053949;28;20786;-74
2021/07/11 02:20:48;;;;;;;2.23;1.57;;;16.90;45.50;;;;;;5044573;28;20984;-74
2021/07/11 02:23:17;;;;;;;2.57;1.77;;;16.90;45.30;;;;;;5033800;28;20509;-74
2021/07/11 02:25:45;;;;;;;2.63;1.50;;;17.00;45.60;;;;;;5033691;28;20422;-75
2021/07/11 02:28:11;;;;;;;2.10;1.30;;;17.00;44.90;;;;;;5033502;28;20491;-74
2021/07/11 02:30:52;;;;;;;2.43;1.47;;;16.90;45.00;;;;;;5051436;28;20433;-74
2021/07/11 02:33:26;;;;;;;3.70;1.57;;;17.00;46.00;;;;;;5053400;28;20175;-74
2021/07/11 02:35:53;;;;;;;2.07;1.37;;;17.00;45.30;;;;;;5053539;28;20431;-74
2021/07/11 02:38:20;;;;;;;2.53;1.57;;;17.10;45.80;;;;;;5035268;28;20413;-74
2021/07/11 02:40:46;;;;;;;2.77;1.63;;;17.10;46.40;;;;;;5015787;28;20461;-74
2021/07/11 02:43:15;;;;;;;2.07;1.30;;;17.10;46.20;;;;;;5016147;28;20418;-74
2021/07/11 02:45:43;;;;;;;3.10;1.93;;;17.00;47.50;;;;;;5033799;28;20461;-74
2021/07/11 02:48:10;;;;;;;2.37;2.17;;;16.90;48.30;;;;;;5016082;28;20418;-74
2021/07/11 02:50:37;;;;;;;2.33;1.80;;;16.90;48.70;;;;;;5033432;28;21027;-73
2021/07/11 02:53:04;;;;;;;5.20;1.90;;;16.80;49.20;;;;;;5053706;28;20413;-74
2021/07/11 02:55:34;;;;;;;2.23;1.73;;;16.80;50.00;;;;;;5053359;28;20469;-74
2021/07/11 02:58:07;;;;;;;2.60;1.80;;;16.80;49.70;;;;;;5053237;28;20517;-73
2021/07/11 03:00:33;;;;;;;2.33;1.60;;;16.80;49.70;;;;;;5035805;28;20907;-73
2021/07/11 03:03:00;;;;;;;2.23;1.80;;;16.90;50.00;;;;;;5033227;28;20771;-74
2021/07/11 03:05:27;;;;;;;1.80;1.40;;;16.80;50.20;;;;;;5033214;28;20423;-73
2021/07/11 03:07:52;;;;;;;4.67;1.80;;;16.80;50.50;;;;;;5015209;28;20414;-74
2021/07/11 03:10:18;;;;;;;2.33;1.50;;;16.80;50.90;;;;;;5047475;28;20470;-74
2021/07/11 03:12:50;;;;;;;6.87;2.00;;;16.70;50.50;;;;;;5035122;28;20182;-73
2021/07/11 03:15:17;;;;;;;2.00;1.60;;;16.70;50.60;;;;;;5034837;28;20482;-74
2021/07/11 03:17:43;;;;;;;3.30;1.73;;;16.70;50.30;;;;;;5052320;28;20571;-72
2021/07/11 03:20:11;;;;;;;2.17;1.70;;;16.70;50.70;;;;;;5020970;28;20461;-74
2021/07/11 03:22:38;;;;;;;2.00;1.53;;;16.70;49.80;;;;;;5015749;28;20417;-75
2021/07/11 03:25:08;;;;;;;3.10;1.53;;;16.70;49.10;;;;;;5033437;28;20508;-74
2021/07/11 03:27:34;;;;;;;1.90;1.63;;;16.70;48.60;;;;;;5033172;28;20406;-73
2021/07/11 03:30:07;;;;;;;1.67;1.17;;;16.60;48.10;;;;;;5044831;28;20433;-73
2021/07/11 03:32:44;;;;;;;3.70;1.97;;;16.60;48.30;;;;;;5035180;28;20413;-71
2021/07/11 03:35:12;;;;;;;2.00;1.53;;;16.60;48.70;;;;;;5053278;28;20411;-73
2021/07/11 03:37:42;;;;;;;3.73;1.73;;;16.60;47.30;;;;;;5053479;28;20468;-74
2021/07/11 03:40:10;;;;;;;2.00;1.33;;;16.50;47.90;;;;;;5040283;28;20457;-74
2021/07/11 03:42:40;;;;;;;3.13;1.80;;;16.40;48.50;;;;;;5033381;28;20432;-74
2021/07/11 03:45:07;;;;;;;11.60;1.83;;;16.40;49.60;;;;;;5033289;28;20837;-74
2021/07/11 03:47:37;;;;;;;2.20;1.50;;;16.40;50.40;;;;;;5033403;28;20954;-72
2021/07/11 03:50:05;;;;;;;2.70;2.00;;;16.40;49.70;;;;;;5044466;28;20484;-72
2021/07/11 03:52:40;;;;;;;3.50;1.60;;;16.40;49.80;;;;;;5052860;28;20409;-73
2021/07/11 03:55:08;;;;;;;1.70;1.40;;;16.30;50.00;;;;;;5053105;28;20420;-74
2021/07/11 03:57:35;;;;;;;2.40;1.73;;;16.30;50.20;;;;;;5052701;28;20872;-74
2021/07/11 04:00:01;;;;;;;15.03;1.70;;;16.40;49.70;;;;;;5041491;28;20437;-75
2021/07/11 04:02:32;;;;;;;2.50;1.60;;;16.30;49.80;;;;;;5033047;28;20421;-74
2021/07/11 04:04:58;;;;;;;4.47;2.27;;;16.30;50.40;;;;;;5032853;28;20449;-73
2021/07/11 04:07:26;;;;;;;1.90;1.40;;;16.40;50.20;;;;;;5032629;28;20476;-74
2021/07/11 04:09:53;;;;;;;3.30;1.77;;;16.40;50.30;;;;;;5042037;28;20443;-73
2021/07/11 04:12:18;;;;;;;3.27;1.83;;;16.40;50.20;;;;;;5034123;28;20427;-75
2021/07/11 04:14:44;;;;;;;3.53;1.50;;;16.40;50.40;;;;;;5034341;28;20413;-74
2021/07/11 04:17:10;;;;;;;3.63;1.60;;;16.50;50.00;;;;;;5051945;28;20202;-73
2021/07/11 04:19:40;;;;;;;4.43;2.13;;;16.50;50.40;;;;;;5043871;28;20218;-74
2021/07/11 04:22:07;;;;;;;1.87;1.57;;;16.50;49.50;;;;;;5032616;28;20261;-75
2021/07/11 04:24:35;;;;;;;3.20;2.03;;;16.50;49.80;;;;;;5031234;28;20773;-74
2021/07/11 04:27:02;;;;;;;1.67;1.40;;;16.60;48.80;;;;;;5024504;28;20843;-75
2021/07/11 04:29:30;;;;;;;3.10;1.80;;;16.60;48.50;;;;;;5037305;28;20488;-74
2021/07/11 04:31:57;;;;;;;3.07;2.33;;;16.70;47.90;;;;;;5037556;28;20430;-74
2021/07/11 04:34:31;;;;;;;1.80;1.30;;;16.70;48.30;;;;;;5032387;28;20500;-75
2021/07/11 04:36:58;;;;;;;4.70;1.80;;;16.70;47.70;;;;;;5031949;28;20473;-72
2021/07/11 04:39:24;;;;;;;1.83;1.30;;;16.70;47.50;;;;;;5031756;28;20912;-72
2021/07/11 04:41:50;;;;;;;2.90;1.23;;;16.80;46.70;;;;;;5050916;28;20492;-73
2021/07/11 04:44:17;;;;;;;1.90;1.40;;;16.70;46.80;;;;;;5034555;28;20198;-74
2021/07/11 04:46:43;;;;;;;1.83;1.27;;;16.70;47.10;;;;;;5030767;28;20433;-74
2021/07/11 04:49:09;;;;;;;2.47;1.83;;;16.70;46.60;;;;;;5012766;28;21023;-75
2021/07/11 04:51:35;;;;;;;2.60;1.63;;;16.70;47.30;;;;;;5030844;28;20924;-75
2021/07/11 04:54:03;;;;;;;2.13;1.77;;;16.80;47.40;;;;;;5030851;28;20496;-75
2021/07/11 04:56:30;;;;;;;1.83;1.23;;;16.80;46.50;;;;;;5030845;28;20481;-75
2021/07/11 04:58:56;;;;;;;7.47;1.40;;;16.80;47.40;;;;;;5030383;28;20438;-75
2021/07/11 05:01:21;;;;;;;3.33;1.97;;;16.80;47.10;;;;;;5030705;28;20521;-75
2021/07/11 05:03:47;;;;;;;2.00;1.40;;;16.80;46.90;;;;;;5030788;28;20612;-75
2021/07/11 05:06:12;;;;;;;2.40;1.70;;;16.90;47.50;;;;;;5030677;28;20577;-75
2021/07/11 05:08:38;;;;;;;4.10;2.13;;;16.90;46.90;;;;;;5031070;28;20216;-75
2021/07/11 05:11:03;;;;;;;3.67;2.10;;;17.00;47.00;;;;;;5030672;28;20183;-75
2021/07/11 05:13:29;;;;;;;2.37;1.73;;;17.00;47.50;;;;;;5030894;28;20179;-75
2021/07/11 05:15:54;;;;;;;1.60;1.30;;;17.10;47.60;;;;;;5012933;28;20187;-75
2021/07/11 05:18:20;;;;;;;3.20;2.10;;;17.20;47.80;;;;;;5022022;28;20178;-74
2021/07/11 05:20:46;;;;;;;2.80;1.77;;;17.30;46.80;;;;;;5034129;28;20562;-74
2021/07/11 05:23:11;;;;;;;4.47;2.20;;;17.40;45.60;;;;;;5030679;28;20178;-74
2021/07/11 05:25:37;;;;;;;2.50;1.83;;;17.50;44.30;;;;;;5030650;28;20508;-72
2021/07/11 05:28:03;;;;;;;1.80;1.27;;;17.60;44.40;;;;;;5032565;28;20718;-73
2021/07/11 05:30:30;;;;;;;2.23;1.53;;;17.80;44.30;;;;;;5024175;28;20214;-73
2021/07/11 05:32:56;;;;;;;2.87;1.70;;;17.90;43.30;;;;;;5050435;28;20425;-75
2021/07/11 05:35:22;;;;;;;2.90;1.63;;;18.00;42.10;;;;;;5050924;28;20793;-74
2021/07/11 05:37:47;;;;;;;2.80;1.63;;;18.00;42.00;;;;;;5046064;28;20269;-74
2021/07/11 05:40:15;;;;;;;2.80;1.70;;;18.10;41.30;;;;;;5030322;28;20800;-75
2021/07/11 05:42:42;;;;;;;2.30;1.53;;;18.10;40.90;;;;;;5014872;28;20185;-74
2021/07/11 05:45:08;;;;;;;2.20;1.47;;;18.20;40.60;;;;;;5048199;28;20422;-73
2021/07/11 05:47:34;;;;;;;9.83;1.50;;;18.40;41.00;;;;;;5052725;28;20486;-74
2021/07/11 05:50:00;;;;;;;2.57;1.70;;;19.50;39.40;;;;;;5057239;28;20461;-81
2021/07/11 05:52:26;;;;;;;2.87;1.77;;;21.00;33.50;;;;;;5036819;28;20193;-73
2021/07/11 05:54:51;;;;;;;1.70;1.27;;;21.60;27.70;;;;;;5054209;28;20206;-74
2021/07/11 05:57:18;;;;;;;2.23;2.03;;;21.70;26.40;;;;;;5020613;28;20971;-73
2021/07/11 05:59:44;;;;;;;2.30;1.60;;;21.80;26.70;;;;;;5033599;28;20199;-73
2021/07/11 06:02:10;;;;;;;2.67;1.70;;;22.00;26.60;;;;;;5033971;28;20860;-74
2021/07/11 06:04:36;;;;;;;2.17;1.87;;;22.10;25.50;;;;;;5033871;28;20187;-74
2021/07/11 06:07:01;;;;;;;2.90;2.00;;;22.50;25.80;;;;;;5046487;28;20186;-73
2021/07/11 06:09:27;;;;;;;4.90;1.60;;;23.00;25.20;;;;;;5053346;28;20584;-73
2021/07/11 06:11:52;;;;;;;2.10;1.90;;;24.20;23.80;;;;;;5053709;28;20174;-73
2021/07/11 06:14:18;;;;;;;2.87;2.50;;;25.60;21.00;;;;;;5035726;28;20586;-73
2021/07/11 06:16:45;;;;;;;2.67;2.47;;;27.10;18.20;;;;;;5043116;28;20246;-73
2021/07/11 06:19:12;;;;;;;2.90;2.70;;;27.30;16.70;;;;;;5015508;28;20206;-73
2021/07/11 06:21:37;;;;;;;2.43;2.23;;;27.30;15.80;;;;;;5015853;28;20426;-73
2021/07/11 06:24:03;;;;;;;6.47;2.70;;;26.50;17.90;;;;;;5033609;28;20456;-73
2021/07/11 06:26:29;;;;;;;3.17;2.87;;;26.20;18.10;;;;;;5041328;28;20190;-73
2021/07/11 06:28:54;;;;;;;2.53;2.33;;;25.80;18.30;;;;;;5053165;28;20830;-73
2021/07/11 06:31:20;;;;;;;3.07;2.87;;;25.50;19.40;;;;;;5034135;28;20640;-77
2021/07/11 06:33:45;;;;;;;3.30;3.10;;;25.60;18.20;;;;;;5016202;28;20233;-73
2021/07/11 06:36:11;;;;;;;3.70;3.40;;;26.00;18.50;;;;;;5020363;28;20218;-73
2021/07/11 06:38:36;;;;;;;3.50;3.20;;;27.20;16.70;;;;;;5053250;28;20275;-75
2021/07/11 06:41:02;;;;;;;5.47;3.57;;;28.40;15.10;;;;;;5053220;28;20235;-73
2021/07/11 06:43:28;;;;;;;4.10;3.90;;;29.70;13.00;;;;;;5035382;28;20178;-75
2021/07/11 06:45:53;;;;;;;3.73;3.53;;;30.70;10.30;;;;;;5046012;28;20191;-74
2021/07/11 06:48:19;;;;;;;4.30;4.00;;;30.80;10.60;;;;;;5052871;28;20181;-74
2021/07/11 06:50:45;;;;;;;4.83;3.93;;;31.40;11.10;;;;;;5035047;28;20218;-74
2021/07/11 06:53:11;;;;;;;4.80;4.60;;;31.90;8.80;;;;;;5035004;28;20210;-73
2021/07/11 06:55:37;;;;;;;4.80;4.50;;;32.20;8.60;;;;;;5034692;28;20648;-74
2021/07/11 06:58:03;;;;;;;4.90;4.60;;;32.50;8.40;;;;;;5032774;28;20544;-74
2021/07/11 07:00:28;;;;;;;5.23;4.93;;;32.60;7.80;;;;;;5014818;28;21015;-73
2021/07/11 07:02:54;;;;;;;6.10;5.80;;;32.70;7.40;;;;;;5015191;28;20613;-73
2021/07/11 07:05:21;;;;;;;6.70;6.40;;;32.00;6.20;;;;;;5032883;28;20202;-73
2021/07/11 07:07:47;;;;;;;7.47;7.10;;;30.50;8.50;;;;;;5049834;28;20179;-74
2021/07/11 07:10:14;;;;;;;7.50;7.10;;;29.20;10.50;;;;;;5052553;28;20968;-73
2021/07/11 07:12:41;;;;;;;7.27;6.90;;;28.10;13.10;;;;;;5031618;28;20674;-71
2021/07/11 07:15:07;;;;;;;7.17;6.87;;;27.30;13.40;;;;;;5039417;28;20426;-74
2021/07/11 07:17:33;;;;;;;7.43;7.13;;;26.80;13.60;;;;;;5010685;28;20470;-72
2021/07/11 07:19:59;;;;;;;7.90;7.60;;;25.80;13.50;;;;;;5010739;28;20963;-72
2021/07/11 07:22:24;;;;;;;7.43;7.13;;;25.40;14.40;;;;;;5028476;28;20218;-74
2021/07/11 07:24:50;;;;;;;9.00;7.93;;;24.90;16.20;;;;;;5034201;28;20193;-74
2021/07/11 07:27:15;;;;;;;7.30;7.00;;;24.50;17.00;;;;;;5048703;28;20197;-72
2021/07/11 07:29:41;;;;;;;7.87;7.47;;;24.40;19.60;;;;;;5029444;28;20233;-72
2021/07/11 07:32:07;;;;;;;7.77;7.07;;;23.90;22.20;;;;;;5026580;28;20198;-72
2021/07/11 07:34:32;;;;;;;6.90;6.60;;;23.40;23.30;;;;;;5032234;28;20647;-72
2021/07/11 07:36:59;;;;;;;6.53;6.23;;;23.10;25.20;;;;;;5047761;28;20236;-72
2021/07/11 07:39:26;;;;;;;6.97;6.57;;;23.30;19.10;;;;;;5047228;28;20648;-72
2021/07/11 07:41:52;;;;;;;8.10;7.80;;;24.60;19.10;;;;;;5048339;28;20456;-72
2021/07/11 07:44:17;;;;;;;9.00;8.60;;;26.00;15.00;;;;;;5046028;28;20459;-72
2021/07/11 07:46:43;;;;;;;9.20;8.70;;;26.50;13.90;;;;;;5009906;28;20566;-72
2021/07/11 07:49:08;;;;;;;9.10;8.40;;;26.20;14.30;;;;;;5027996;28;20831;-72
2021/07/11 07:51:34;;;;;;;8.90;8.50;;;26.20;36.30;;;;;;5009718;28;20194;-72
2021/07/11 07:53:59;;;;;;;9.07;8.67;;;26.00;38.70;;;;;;5029791;28;20845;-72
2021/07/11 07:56:25;;;;;;;8.37;7.80;;;25.60;36.90;;;;;;5027407;28;20203;-72
2021/07/11 07:58:50;;;;;;;9.23;8.77;;;25.40;15.70;;;;;;5026972;28;20195;-72
2021/07/11 08:01:16;;;;;;;8.27;7.97;;;25.20;16.20;;;;;;5028098;28;20293;-72
2021/07/11 08:03:42;;;;;;;8.60;8.23;;;;;;;;;;5035687;28;20186;-72
2021/07/11 08:06:08;;;;;;;8.30;8.00;;;;;;;;;;5046625;28;20186;-72
2021/07/11 08:08:33;;;;;;;8.10;7.70;;;23.50;52.20;;;;;;5047741;28;20532;-72
2021/07/11 08:10:59;;;;;;;7.97;7.43;;;23.10;18.70;;;;;;5046891;28;20487;-72
2021/07/11 08:13:24;;;;;;;6.73;6.43;;;22.70;20.00;;;;;;5018922;28;21006;-73
2021/07/11 08:15:50;;;;;;;6.03;5.73;;;22.30;20.80;;;;;;5044801;28;20194;-72
2021/07/11 08:18:15;;;;;;;4.60;4.30;;;21.90;22.20;;;;;;5046167;28;20208;-72
2021/07/11 08:20:41;;;;;;;4.10;3.80;;;21.60;24.00;;;;;;5036607;28;20191;-72
2021/07/11 08:23:07;;;;;;;4.63;3.23;;;21.20;26.90;;;;;;5032589;28;20244;-72
2021/07/11 08:25:32;;;;;;;2.70;2.50;;;20.70;28.60;;;;;;5042354;28;20191;-71
2021/07/11 08:27:58;;;;;;;2.20;1.93;;;20.20;29.10;;;;;;5038896;28;20771;-72
2021/07/11 08:30:24;;;;;;;2.50;2.27;;;19.90;30.40;;;;;;5046638;28;20234;-71
2021/07/11 08:32:49;;;;;;;3.30;2.27;;;19.70;31.50;;;;;;5046569;28;20269;-72
2021/07/11 08:35:15;;;;;;;2.07;1.87;;;19.70;33.90;;;;;;5047776;28;20186;-73
2021/07/11 08:37:41;;;;;;;2.73;1.90;;;19.80;32.50;;;;;;5033037;28;20206;-72
2021/07/11 08:40:09;;;;;;;3.80;2.90;;;19.90;33.20;;;;;;5026501;28;20217;-72
2021/07/11 08:42:36;;;;;;;3.03;1.90;;;20.10;33.10;;;;;;5050796;28;20425;-72
2021/07/11 08:45:02;;;;;;;2.13;1.93;;;20.40;30.90;;;;;;5050604;28;20413;-72
2021/07/11 08:47:29;;;;;;;3.30;2.63;;;20.70;29.90;;;;;;5046906;28;20429;-72
2021/07/11 08:49:55;;;;;;;3.87;2.97;;;21.30;30.30;;;;;;5041124;28;20461;-73
2021/07/11 08:52:20;;;;;;;3.37;3.17;;;21.60;29.20;;;;;;5028861;28;20434;-72
2021/07/11 08:54:46;;;;;;;4.13;3.83;;;22.00;26.10;;;;;;5026464;28;20199;-72
2021/07/11 08:57:12;;;;;;;4.20;3.90;;;22.50;25.60;;;;;;5027244;28;20301;-72
2021/07/11 08:59:39;;;;;;;5.17;4.77;;;22.70;23.40;;;;;;5043943;28;20241;-72
2021/07/11 09:02:06;;;;;;;4.60;4.40;;;22.80;23.50;;;;;;5027800;28;20244;-71
2021/07/11 09:04:43;;;;;;;5.23;4.93;;;23.10;23.40;;;;;;5047065;28;20420;-72
2021/07/11 09:07:21;;;;;;;6.23;5.80;;;23.20;21.90;;;;;;5047064;28;20893;-72
2021/07/11 09:09:55;;;;;;;6.80;6.40;;;23.30;21.10;;;;;;5028664;28;20450;-72
2021/07/11 09:12:21;;;;;;;5.57;5.27;;;23.10;19.70;;;;;;5011459;28;20430;-71
2021/07/11 09:14:46;;;;;;;5.40;4.90;;;23.30;21.20;;;;;;5026308;28;20414;-72
2021/07/11 09:17:13;;;;;;;7.13;6.83;;;23.50;22.20;;;;;;5029629;28;20218;-72
2021/07/11 09:19:49;;;;;;;6.93;6.60;;;23.70;18.30;;;;;;5030665;28;20218;-72
2021/07/11 09:22:23;;;;;;;6.43;6.13;;;24.20;19.40;;;;;;5029739;28;20420;-72
2021/07/11 09:24:53;;;;;;;7.33;7.03;;;24.30;20.70;;;;;;5050943;28;20679;-72
2021/07/11 09:27:21;;;;;;;8.40;7.90;;;24.30;18.80;;;;;;5031525;28;20794;-73
2021/07/11 09:29:47;;;;;;;6.70;6.40;;;24.20;18.50;;;;;;5016485;28;20437;-71
2021/07/11 09:32:32;;;;;;;7.47;7.13;;;24.00;19.30;;;;;;5050509;28;20453;-71
2021/07/11 09:35:15;;;;;;;6.93;6.43;;;23.60;19.10;;;;;;5031680;28;20551;-71
2021/07/11 09:37:45;;;;;;;5.50;5.10;;;23.30;21.30;;;;;;5043443;28;20474;-72
2021/07/11 09:40:14;;;;;;;5.60;5.30;;;23.10;23.10;;;;;;5053976;28;20436;-71
2021/07/11 09:42:42;;;;;;;5.33;5.13;;;22.90;23.50;;;;;;5054068;28;20456;-71
2021/07/11 09:45:22;;;;;;;5.47;5.10;;;22.70;21.90;;;;;;5036267;28;20470;-72
2021/07/11 09:47:55;;;;;;;5.90;5.60;;;22.90;22.90;;;;;;5036395;28;20443;-72
2021/07/11 09:50:25;;;;;;;5.50;5.20;;;22.90;23.20;;;;;;5053573;28;20459;-72
2021/07/11 09:52:53;;;;;;;5.43;5.13;;;23.10;22.40;;;;;;5053592;28;20421;-72
2021/07/11 09:55:21;;;;;;;5.63;5.33;;;23.30;23.20;;;;;;5036076;28;20951;-72
2021/07/11 09:57:52;;;;;;;5.90;5.60;;;23.60;23.20;;;;;;5054102;28;20472;-72
2021/07/11 10:00:22;;;;;;;6.80;6.50;;;23.80;21.50;;;;;;5053422;28;20551;-72
2021/07/11 10:02:50;;;;;;;6.53;6.23;;;24.00;20.10;;;;;;5053812;28;20416;-72
2021/07/11 10:05:17;;;;;;;5.80;5.50;;;24.10;19.30;;;;;;5053894;28;20440;-72
2021/07/11 10:07:44;;;;;;;7.20;6.60;;;24.00;21.50;;;;;;5053647;28;20520;-72
2021/07/11 10:10:23;;;;;;;7.20;6.80;;;24.10;19.30;;;;;;5035387;28;20441;-72
2021/07/11 10:12:49;;;;;;;8.00;7.60;;;24.20;19.50;;;;;;5053099;28;20432;-74
2021/07/11 10:15:18;;;;;;;7.83;7.43;;;24.30;17.70;;;;;;5040385;28;20523;-72
2021/07/11 10:17:51;;;;;;;7.70;7.40;;;23.90;17.40;;;;;;5033659;28;20977;-74
2021/07/11 10:20:20;;;;;;;7.80;7.50;;;23.90;18.70;;;;;;5015436;28;20541;-73
2021/07/11 10:22:50;;;;;;;8.40;8.00;;;24.10;18.00;;;;;;5049897;28;20440;-72
2021/07/11 10:25:18;;;;;;;8.13;7.83;;;24.30;18.60;;;;;;5053187;28;20425;-72
2021/07/11 10:27:45;;;;;;;8.57;8.20;;;24.40;18.70;;;;;;5052725;28;20937;-72
2021/07/11 10:30:11;;;;;;;8.40;7.80;;;24.40;18.10;;;;;;5019119;28;20461;-74
2021/07/11 10:32:37;;;;;;;7.77;7.37;;;24.40;18.80;;;;;;5034392;28;20421;-73
2021/07/11 10:35:12;;;;;;;7.80;7.33;;;24.40;19.60;;;;;;5035983;28;20418;-73
2021/07/11 10:37:45;;;;;;;8.40;8.00;;;24.40;19.60;;;;;;5035552;28;20210;-72
2021/07/11 10:40:32;;;;;;;8.80;8.40;;;24.50;17.70;;;;;;5050828;28;20480;-71
2021/07/11 10:42:58;;;;;;;9.70;9.20;;;24.40;17.50;;;;;;5055800;28;20792;-72
2021/07/11 10:45:25;;;;;;;8.40;8.00;;;24.10;17.90;;;;;;5055890;28;20478;-72
2021/07/11 10:47:50;;;;;;;7.90;7.50;;;23.90;18.10;;;;;;5055668;28;20977;-73
2021/07/11 10:50:25;;;;;;;7.60;7.20;;;23.50;18.90;;;;;;5038502;28;20512;-70
2021/07/11 10:52:51;;;;;;;6.90;6.60;;;23.40;19.40;;;;;;5033604;28;20199;-73
2021/07/11 10:55:17;;;;;;;6.83;6.50;;;;;;;;;;5015623;28;20527;-72
2021/07/11 10:57:43;;;;;;;6.13;5.70;;;22.90;46.70;;;;;;5032766;28;20570;-73
2021/07/11 11:00:08;;;;;;;5.63;5.33;;;22.30;22.00;;;;;;5028925;28;20445;-73
2021/07/11 11:02:34;;;;;;;6.47;5.97;;;22.00;22.20;;;;;;5052696;28;20417;-71
2021/07/11 11:05:03;;;;;;;6.20;5.93;;;22.00;21.30;;;;;;5052760;28;20206;-73
2021/07/11 11:07:55;;;;;;;7.43;6.80;;;22.20;20.70;;;;;;5052648;28;20692;-72
2021/07/11 11:10:33;;;;;;;6.67;6.37;;;22.40;20.20;;;;;;5008114;28;20963;-73
2021/07/11 11:13:06;;;;;;;6.80;6.50;;;22.50;21.00;;;;;;5014768;28;20930;-72
2021/07/11 11:15:45;;;;;;;6.67;6.30;;;22.60;19.90;;;;;;5032690;28;20449;-73
2021/07/11 11:18:15;;;;;;;6.40;6.10;;;22.70;19.90;;;;;;5014653;28;20501;-73
2021/07/11 11:20:42;;;;;;;6.83;6.53;;;22.70;20.70;;;;;;5050749;28;20448;-73
2021/07/11 11:23:11;;;;;;;6.50;6.20;;;22.70;19.90;;;;;;5052578;28;20782;-74
2021/07/11 11:25:38;;;;;;;7.40;7.10;;;22.80;19.80;;;;;;5051971;28;20405;-73
2021/07/11 11:28:04;;;;;;;6.60;6.30;;;22.70;20.00;;;;;;5030578;28;20456;-73
2021/07/11 11:30:30;;;;;;;6.90;6.60;;;22.60;20.30;;;;;;5027225;28;20552;-72
2021/07/11 11:33:00;;;;;;;6.80;6.47;;;22.70;20.60;;;;;;5032027;28;20414;-72
2021/07/11 11:35:28;;;;;;;7.30;6.90;;;23.10;19.80;;;;;;5049272;28;20190;-71
2021/07/11 11:37:57;;;;;;;7.37;7.07;;;;;;;;;;5052106;28;20496;-72
2021/07/11 11:40:24;;;;;;;7.50;7.20;;;;;;;;;;5017068;28;21044;-71
2021/07/11 11:42:54;;;;;;;7.60;7.20;;;;;;;;;;5042993;28;20475;-72
2021/07/11 11:45:21;;;;;;;7.27;6.97;;;;;;;;;;5052072;28;20414;-72
2021/07/11 11:48:07;;;;;;;8.43;8.07;;;;;;;;;;5033651;28;20839;-71
2021/07/11 11:50:35;;;;;;;8.70;8.30;;;;;;;;;;5031089;28;20840;-72
2021/07/11 11:53:04;;;;;;;10.00;9.53;;;;;;;;;;5051927;28;20409;-73
2021/07/11 11:55:30;;;;;;;9.40;9.00;;;23.00;27.90;;;;;;5051734;28;20409;-73
2021/07/11 11:58:00;;;;;;;8.87;8.47;;;22.80;17.20;;;;;;5051621;28;20866;-72
2021/07/11 12:00:26;;;;;;;7.93;7.63;;;22.40;17.70;;;;;;5035264;28;20207;-73
2021/07/11 12:02:59;;;;;;;8.63;8.23;;;22.30;18.10;;;;;;5031618;28;20414;-72
2021/07/11 12:05:32;;;;;;;9.00;8.60;;;22.50;18.30;;;;;;5031810;28;20178;-72
2021/07/11 12:07:58;;;;;;;9.57;9.17;;;22.80;17.50;;;;;;5031676;28;21151;-72
2021/07/11 12:10:26;;;;;;;8.60;8.30;;;23.10;18.00;;;;;;5027493;28;20488;-72
2021/07/11 12:12:59;;;;;;;8.73;8.43;;;23.30;17.90;;;;;;5028525;28;20993;-71
2021/07/11 12:15:36;;;;;;;8.70;8.40;;;23.40;17.20;;;;;;5046948;28;20427;-71
2021/07/11 12:18:05;;;;;;;9.43;9.03;;;23.50;17.40;;;;;;5046804;28;20460;-72
2021/07/11 12:20:30;;;;;;;10.60;10.10;;;23.90;15.80;;;;;;5045761;28;20452;-72
2021/07/11 12:22:56;;;;;;;10.20;9.83;;;24.20;16.10;;;;;;5027829;28;20813;-72
2021/07/11 12:25:28;;;;;;;10.57;10.07;;;24.50;15.00;;;;;;5013055;28;20183;-72
2021/07/11 12:28:04;;;;;;;10.80;10.40;;;24.70;14.80;;;;;;5026959;28;20563;-72
2021/07/11 12:30:47;;;;;;;10.90;10.50;;;24.70;14.00;;;;;;5026378;28;20449;-71
2021/07/11 12:33:34;;;;;;;10.83;10.40;;;24.60;16.60;;;;;;5028479;28;20429;-71
2021/07/11 12:36:04;;;;;;;10.40;10.00;;;24.60;15.20;;;;;;5047252;28;20427;-72
2021/07/11 12:38:32;;;;;;;11.33;10.93;;;24.60;15.30;;;;;;5028713;28;20857;-72
2021/07/11 12:41:01;;;;;;;11.00;10.60;;;24.90;13.40;;;;;;5026918;28;20478;-72
2021/07/11 12:43:33;;;;;;;12.40;11.70;;;25.00;13.50;;;;;;5046971;28;20432;-71
2021/07/11 12:46:07;;;;;;;12.10;11.60;;;25.00;13.50;;;;;;5047322;28;20497;-71
2021/07/11 12:48:47;;;;;;;11.53;10.90;;;24.90;13.60;;;;;;5047227;28;20452;-71
2021/07/11 12:51:17;;;;;;;11.70;11.30;;;24.70;14.20;;;;;;5029239;28;20440;-72
2021/07/11 12:53:44;;;;;;;11.37;10.90;;;24.70;13.70;;;;;;5029268;28;20464;-71
2021/07/11 12:56:13;;;;;;;11.87;11.47;;;24.80;14.00;;;;;;5028481;28;20428;-72